sensor_id;sensor_type;location;lat;lon;timestamp;P1;durP1;ratioP1;P2;durP2;ratioP2
11303;SDS011;5707;49.588;12.148;2023-02-04T00:01:28;8.45;;;2.05;;
11303;SDS011;5707;49.588;12.148;2023-02-04T00:03:53;5.60;;;2.13;;
11303;SDS011;5707;49.588;12.148;2023-02-04T00:06:19;4.47;;;1.75;;
11303;SDS011;5707;49.588;12.148;2023-02-04T00:08:44;5.47;;;2.55;;
11303;SDS011;5707;49.588;12.148;2023-02-04T00:11:10;6.90;;;2.15;;
11303;SDS011;5707;49.588;12.148;2023-02-04T00:13:35;6.07;;;1.25;;
11303;SDS011;5707;49.588;12.148;2023-02-04T00:16:01;4.60;;;1.52;;
11303;SDS011;5707;49.588;12.148;2023-02-04T00:18:27;7.18;;;2.38;;
11303;SDS011;5707;49.588;12.148;2023-02-04T00:20:53;6.22;;;1.67;;
11303;SDS011;5707;49.588;12.148;2023-02-04T00:23:18;8.55;;;2.10;;
11303;SDS011;5707;49.588;12.148;2023-02-04T00:25:44;6.45;;;1.90;;
11303;SDS011;5707;49.588;12.148;2023-02-04T00:28:10;5.82;;;1.80;;
11303;SDS011;5707;49.588;12.148;2023-02-04T00:30:35;8.77;;;1.88;;
11303;SDS011;5707;49.588;12.148;2023-02-04T00:33:01;4.72;;;1.48;;
11303;SDS011;5707;49.588;12.148;2023-02-04T00:35:26;6.20;;;2.28;;
11303;SDS011;5707;49.588;12.148;2023-02-04T00:37:52;3.63;;;1.63;;
11303;SDS011;5707;49.588;12.148;2023-02-04T00:40:18;8.18;;;2.33;;
11303;SDS011;5707;49.588;12.148;2023-02-04T00:42:44;5.75;;;1.77;;
11303;SDS011;5707;49.588;12.148;2023-02-04T00:45:10;6.65;;;2.20;;
11303;SDS011;5707;49.588;12.148;2023-02-04T00:47:36;3.00;;;1.77;;
11303;SDS011;5707;49.588;12.148;2023-02-04T00:50:02;5.72;;;1.88;;
11303;SDS011;5707;49.588;12.148;2023-02-04T00:52:27;7.90;;;1.63;;
11303;SDS011;5707;49.588;12.148;2023-02-04T00:54:53;5.60;;;1.70;;
11303;SDS011;5707;49.588;12.148;2023-02-04T00:57:18;5.75;;;1.80;;
11303;SDS011;5707;49.588;12.148;2023-02-04T00:59:44;4.40;;;1.45;;
11303;SDS011;5707;49.588;12.148;2023-02-04T01:02:10;3.85;;;1.65;;
11303;SDS011;5707;49.588;12.148;2023-02-04T01:04:35;3.65;;;1.77;;
11303;SDS011;5707;49.588;12.148;2023-02-04T01:07:01;6.50;;;1.58;;
11303;SDS011;5707;49.588;12.148;2023-02-04T01:09:26;6.63;;;2.55;;
11303;SDS011;5707;49.588;12.148;2023-02-04T01:11:52;5.47;;;1.95;;
11303;SDS011;5707;49.588;12.148;2023-02-04T01:14:17;4.47;;;1.77;;
11303;SDS011;5707;49.588;12.148;2023-02-04T01:16:43;6.72;;;2.03;;
11303;SDS011;5707;49.588;12.148;2023-02-04T01:19:09;3.47;;;1.65;;
11303;SDS011;5707;49.588;12.148;2023-02-04T01:21:35;4.00;;;1.83;;
11303;SDS011;5707;49.588;12.148;2023-02-04T01:24:01;5.07;;;1.55;;
11303;SDS011;5707;49.588;12.148;2023-02-04T01:26:27;2.35;;;1.10;;
11303;SDS011;5707;49.588;12.148;2023-02-04T01:28:53;3.42;;;1.35;;
11303;SDS011;5707;49.588;12.148;2023-02-04T01:31:18;4.68;;;1.92;;
11303;SDS011;5707;49.588;12.148;2023-02-04T01:33:44;3.10;;;1.38;;
11303;SDS011;5707;49.588;12.148;2023-02-04T01:36:10;5.03;;;1.70;;
11303;SDS011;5707;49.588;12.148;2023-02-04T01:38:35;4.47;;;1.70;;
11303;SDS011;5707;49.588;12.148;2023-02-04T01:41:01;4.70;;;1.10;;
11303;SDS011;5707;49.588;12.148;2023-02-04T01:43:28;3.92;;;1.42;;
11303;SDS011;5707;49.588;12.148;2023-02-04T01:45:54;6.05;;;1.40;;
11303;SDS011;5707;49.588;12.148;2023-02-04T01:48:19;5.57;;;1.90;;
11303;SDS011;5707;49.588;12.148;2023-02-04T01:50:47;7.53;;;1.80;;
11303;SDS011;5707;49.588;12.148;2023-02-04T01:53:15;3.17;;;1.40;;
11303;SDS011;5707;49.588;12.148;2023-02-04T01:55:45;5.03;;;1.38;;
11303;SDS011;5707;49.588;12.148;2023-02-04T01:58:11;5.65;;;1.23;;
11303;SDS011;5707;49.588;12.148;2023-02-04T02:00:37;5.00;;;1.75;;
11303;SDS011;5707;49.588;12.148;2023-02-04T02:03:03;3.55;;;1.13;;
11303;SDS011;5707;49.588;12.148;2023-02-04T02:05:32;3.40;;;1.35;;
11303;SDS011;5707;49.588;12.148;2023-02-04T02:08:00;5.32;;;1.65;;
11303;SDS011;5707;49.588;12.148;2023-02-04T02:10:28;4.47;;;1.90;;
11303;SDS011;5707;49.588;12.148;2023-02-04T02:12:54;2.85;;;1.38;;
11303;SDS011;5707;49.588;12.148;2023-02-04T02:15:20;3.70;;;1.70;;
11303;SDS011;5707;49.588;12.148;2023-02-04T02:17:46;8.32;;;1.88;;
11303;SDS011;5707;49.588;12.148;2023-02-04T02:20:13;5.47;;;1.60;;
11303;SDS011;5707;49.588;12.148;2023-02-04T02:22:46;4.70;;;1.55;;
11303;SDS011;5707;49.588;12.148;2023-02-04T02:25:15;5.40;;;1.30;;
11303;SDS011;5707;49.588;12.148;2023-02-04T02:27:41;3.53;;;1.70;;
11303;SDS011;5707;49.588;12.148;2023-02-04T02:30:07;5.13;;;1.60;;
11303;SDS011;5707;49.588;12.148;2023-02-04T02:32:35;3.50;;;1.50;;
11303;SDS011;5707;49.588;12.148;2023-02-04T02:35:01;8.13;;;2.28;;
11303;SDS011;5707;49.588;12.148;2023-02-04T02:37:28;4.05;;;1.80;;
11303;SDS011;5707;49.588;12.148;2023-02-04T02:39:54;12.13;;;2.00;;
11303;SDS011;5707;49.588;12.148;2023-02-04T02:42:20;5.97;;;1.48;;
11303;SDS011;5707;49.588;12.148;2023-02-04T02:44:46;7.10;;;2.03;;
11303;SDS011;5707;49.588;12.148;2023-02-04T02:47:13;5.20;;;1.63;;
11303;SDS011;5707;49.588;12.148;2023-02-04T02:49:41;7.07;;;1.98;;
11303;SDS011;5707;49.588;12.148;2023-02-04T02:52:11;4.72;;;1.63;;
11303;SDS011;5707;49.588;12.148;2023-02-04T02:54:37;6.68;;;1.90;;
11303;SDS011;5707;49.588;12.148;2023-02-04T02:57:04;7.07;;;1.67;;
11303;SDS011;5707;49.588;12.148;2023-02-04T02:59:36;8.00;;;1.88;;
11303;SDS011;5707;49.588;12.148;2023-02-04T03:02:01;5.35;;;1.55;;
11303;SDS011;5707;49.588;12.148;2023-02-04T03:04:29;3.83;;;1.42;;
11303;SDS011;5707;49.588;12.148;2023-02-04T03:06:57;4.97;;;2.10;;
11303;SDS011;5707;49.588;12.148;2023-02-04T03:09:24;5.35;;;1.65;;
11303;SDS011;5707;49.588;12.148;2023-02-04T03:11:51;5.50;;;1.65;;
11303;SDS011;5707;49.588;12.148;2023-02-04T03:14:17;4.68;;;1.75;;
11303;SDS011;5707;49.588;12.148;2023-02-04T03:16:43;4.63;;;1.60;;
11303;SDS011;5707;49.588;12.148;2023-02-04T03:19:09;5.70;;;1.30;;
11303;SDS011;5707;49.588;12.148;2023-02-04T03:21:35;7.65;;;1.60;;
11303;SDS011;5707;49.588;12.148;2023-02-04T03:24:01;3.70;;;1.42;;
11303;SDS011;5707;49.588;12.148;2023-02-04T03:26:28;5.88;;;1.73;;
11303;SDS011;5707;49.588;12.148;2023-02-04T03:28:53;3.53;;;1.55;;
11303;SDS011;5707;49.588;12.148;2023-02-04T03:31:19;6.10;;;1.60;;
11303;SDS011;5707;49.588;12.148;2023-02-04T03:33:44;5.13;;;0.95;;
11303;SDS011;5707;49.588;12.148;2023-02-04T03:36:10;5.70;;;1.38;;
11303;SDS011;5707;49.588;12.148;2023-02-04T03:38:36;4.10;;;1.48;;
11303;SDS011;5707;49.588;12.148;2023-02-04T03:41:01;7.22;;;1.13;;
11303;SDS011;5707;49.588;12.148;2023-02-04T03:43:27;7.18;;;1.63;;
11303;SDS011;5707;49.588;12.148;2023-02-04T03:45:53;3.90;;;1.60;;
11303;SDS011;5707;49.588;12.148;2023-02-04T03:48:18;3.65;;;1.10;;
11303;SDS011;5707;49.588;12.148;2023-02-04T03:50:44;5.72;;;1.50;;
11303;SDS011;5707;49.588;12.148;2023-02-04T03:53:09;4.78;;;1.63;;
11303;SDS011;5707;49.588;12.148;2023-02-04T03:55:35;4.65;;;2.28;;
11303;SDS011;5707;49.588;12.148;2023-02-04T03:58:02;1.52;;;0.50;;
11303;SDS011;5707;49.588;12.148;2023-02-04T04:00:28;0.55;;;0.40;;
11303;SDS011;5707;49.588;12.148;2023-02-04T04:02:53;2.45;;;0.40;;
11303;SDS011;5707;49.588;12.148;2023-02-04T04:05:21;1.00;;;0.47;;
11303;SDS011;5707;49.588;12.148;2023-02-04T04:07:46;2.05;;;0.77;;
11303;SDS011;5707;49.588;12.148;2023-02-04T04:10:12;1.85;;;0.77;;
11303;SDS011;5707;49.588;12.148;2023-02-04T04:12:38;2.08;;;0.68;;
11303;SDS011;5707;49.588;12.148;2023-02-04T04:15:03;1.17;;;0.40;;
11303;SDS011;5707;49.588;12.148;2023-02-04T04:17:31;2.55;;;0.60;;
11303;SDS011;5707;49.588;12.148;2023-02-04T04:19:57;3.10;;;0.70;;
11303;SDS011;5707;49.588;12.148;2023-02-04T04:22:22;1.63;;;0.60;;
11303;SDS011;5707;49.588;12.148;2023-02-04T04:24:48;0.68;;;0.30;;
11303;SDS011;5707;49.588;12.148;2023-02-04T04:27:14;0.50;;;0.32;;
11303;SDS011;5707;49.588;12.148;2023-02-04T04:29:39;0.55;;;0.30;;
11303;SDS011;5707;49.588;12.148;2023-02-04T04:32:05;0.20;;;0.20;;
11303;SDS011;5707;49.588;12.148;2023-02-04T04:34:30;0.47;;;0.17;;
11303;SDS011;5707;49.588;12.148;2023-02-04T04:36:56;0.90;;;0.40;;
11303;SDS011;5707;49.588;12.148;2023-02-04T04:39:22;0.93;;;0.30;;
11303;SDS011;5707;49.588;12.148;2023-02-04T04:41:47;0.20;;;0.20;;
11303;SDS011;5707;49.588;12.148;2023-02-04T04:44:13;0.77;;;0.20;;
11303;SDS011;5707;49.588;12.148;2023-02-04T04:46:38;0.60;;;0.22;;
11303;SDS011;5707;49.588;12.148;2023-02-04T04:49:04;0.10;;;0.10;;
11303;SDS011;5707;49.588;12.148;2023-02-04T04:51:30;0.30;;;0.10;;
11303;SDS011;5707;49.588;12.148;2023-02-04T04:53:56;0.20;;;0.17;;
11303;SDS011;5707;49.588;12.148;2023-02-04T04:56:22;0.20;;;0.20;;
11303;SDS011;5707;49.588;12.148;2023-02-04T04:58:48;0.20;;;0.10;;
11303;SDS011;5707;49.588;12.148;2023-02-04T05:01:13;0.32;;;0.32;;
11303;SDS011;5707;49.588;12.148;2023-02-04T05:03:39;1.05;;;0.20;;
11303;SDS011;5707;49.588;12.148;2023-02-04T05:06:05;0.30;;;0.10;;
11303;SDS011;5707;49.588;12.148;2023-02-04T05:08:30;0.20;;;0.20;;
11303;SDS011;5707;49.588;12.148;2023-02-04T05:10:56;0.30;;;0.30;;
11303;SDS011;5707;49.588;12.148;2023-02-04T05:13:21;0.47;;;0.45;;
11303;SDS011;5707;49.588;12.148;2023-02-04T05:15:49;0.20;;;0.20;;
11303;SDS011;5707;49.588;12.148;2023-02-04T05:18:15;0.20;;;0.20;;
11303;SDS011;5707;49.588;12.148;2023-02-04T05:20:40;0.60;;;0.20;;
11303;SDS011;5707;49.588;12.148;2023-02-04T05:23:06;0.20;;;0.20;;
11303;SDS011;5707;49.588;12.148;2023-02-04T05:25:31;0.70;;;0.20;;
11303;SDS011;5707;49.588;12.148;2023-02-04T05:27:57;0.57;;;0.30;;
11303;SDS011;5707;49.588;12.148;2023-02-04T05:30:23;0.30;;;0.30;;
11303;SDS011;5707;49.588;12.148;2023-02-04T05:32:48;0.35;;;0.20;;
11303;SDS011;5707;49.588;12.148;2023-02-04T05:35:14;0.30;;;0.25;;
11303;SDS011;5707;49.588;12.148;2023-02-04T05:37:39;0.30;;;0.30;;
11303;SDS011;5707;49.588;12.148;2023-02-04T05:40:05;0.40;;;0.40;;
11303;SDS011;5707;49.588;12.148;2023-02-04T05:42:31;1.45;;;0.40;;
11303;SDS011;5707;49.588;12.148;2023-02-04T05:44:57;0.55;;;0.40;;
11303;SDS011;5707;49.588;12.148;2023-02-04T05:47:23;0.55;;;0.40;;
11303;SDS011;5707;49.588;12.148;2023-02-04T05:49:48;0.40;;;0.40;;
11303;SDS011;5707;49.588;12.148;2023-02-04T05:52:14;0.80;;;0.43;;
11303;SDS011;5707;49.588;12.148;2023-02-04T05:54:40;0.35;;;0.35;;
11303;SDS011;5707;49.588;12.148;2023-02-04T05:57:05;1.27;;;1.17;;
11303;SDS011;5707;49.588;12.148;2023-02-04T05:59:31;0.22;;;0.22;;
11303;SDS011;5707;49.588;12.148;2023-02-04T06:01:56;0.40;;;0.40;;
11303;SDS011;5707;49.588;12.148;2023-02-04T06:04:22;0.30;;;0.30;;
11303;SDS011;5707;49.588;12.148;2023-02-04T06:06:48;0.95;;;0.43;;
11303;SDS011;5707;49.588;12.148;2023-02-04T06:09:13;0.95;;;0.50;;
11303;SDS011;5707;49.588;12.148;2023-02-04T06:11:39;0.38;;;0.38;;
11303;SDS011;5707;49.588;12.148;2023-02-04T06:14:04;0.32;;;0.32;;
11303;SDS011;5707;49.588;12.148;2023-02-04T06:16:30;0.70;;;0.45;;
11303;SDS011;5707;49.588;12.148;2023-02-04T06:18:56;0.40;;;0.40;;
11303;SDS011;5707;49.588;12.148;2023-02-04T06:21:22;0.50;;;0.50;;
11303;SDS011;5707;49.588;12.148;2023-02-04T06:23:47;0.30;;;0.30;;
11303;SDS011;5707;49.588;12.148;2023-02-04T06:26:13;0.55;;;0.55;;
11303;SDS011;5707;49.588;12.148;2023-02-04T06:28:38;0.60;;;0.50;;
11303;SDS011;5707;49.588;12.148;2023-02-04T06:31:04;0.50;;;0.50;;
11303;SDS011;5707;49.588;12.148;2023-02-04T06:33:30;0.40;;;0.40;;
11303;SDS011;5707;49.588;12.148;2023-02-04T06:35:55;0.60;;;0.40;;
11303;SDS011;5707;49.588;12.148;2023-02-04T06:38:21;0.40;;;0.40;;
11303;SDS011;5707;49.588;12.148;2023-02-04T06:40:46;0.77;;;0.60;;
11303;SDS011;5707;49.588;12.148;2023-02-04T06:43:14;0.30;;;0.30;;
11303;SDS011;5707;49.588;12.148;2023-02-04T06:45:40;0.63;;;0.43;;
11303;SDS011;5707;49.588;12.148;2023-02-04T06:48:05;0.20;;;0.20;;
11303;SDS011;5707;49.588;12.148;2023-02-04T06:50:31;0.68;;;0.50;;
11303;SDS011;5707;49.588;12.148;2023-02-04T06:52:56;0.47;;;0.25;;
11303;SDS011;5707;49.588;12.148;2023-02-04T06:55:22;0.40;;;0.40;;
11303;SDS011;5707;49.588;12.148;2023-02-04T06:57:48;0.30;;;0.30;;
11303;SDS011;5707;49.588;12.148;2023-02-04T07:00:13;0.20;;;0.20;;
11303;SDS011;5707;49.588;12.148;2023-02-04T07:02:39;1.48;;;0.63;;
11303;SDS011;5707;49.588;12.148;2023-02-04T07:05:06;0.82;;;0.40;;
11303;SDS011;5707;49.588;12.148;2023-02-04T07:07:32;0.35;;;0.35;;
11303;SDS011;5707;49.588;12.148;2023-02-04T07:09:58;0.70;;;0.40;;
11303;SDS011;5707;49.588;12.148;2023-02-04T07:12:24;0.40;;;0.40;;
11303;SDS011;5707;49.588;12.148;2023-02-04T07:14:49;0.30;;;0.30;;
11303;SDS011;5707;49.588;12.148;2023-02-04T07:17:15;0.30;;;0.30;;
11303;SDS011;5707;49.588;12.148;2023-02-04T07:19:41;0.60;;;0.60;;
11303;SDS011;5707;49.588;12.148;2023-02-04T07:22:06;0.50;;;0.50;;
11303;SDS011;5707;49.588;12.148;2023-02-04T07:24:32;0.50;;;0.47;;
11303;SDS011;5707;49.588;12.148;2023-02-04T07:26:57;0.50;;;0.32;;
11303;SDS011;5707;49.588;12.148;2023-02-04T07:29:23;0.50;;;0.30;;
11303;SDS011;5707;49.588;12.148;2023-02-04T07:31:49;0.30;;;0.30;;
11303;SDS011;5707;49.588;12.148;2023-02-04T07:34:16;0.45;;;0.45;;
11303;SDS011;5707;49.588;12.148;2023-02-04T07:36:42;1.33;;;0.65;;
11303;SDS011;5707;49.588;12.148;2023-02-04T07:39:08;0.40;;;0.32;;
11303;SDS011;5707;49.588;12.148;2023-02-04T07:41:34;0.30;;;0.30;;
11303;SDS011;5707;49.588;12.148;2023-02-04T07:44:00;0.52;;;0.40;;
11303;SDS011;5707;49.588;12.148;2023-02-04T07:46:26;0.30;;;0.30;;
11303;SDS011;5707;49.588;12.148;2023-02-04T07:48:51;0.28;;;0.28;;
11303;SDS011;5707;49.588;12.148;2023-02-04T07:51:17;0.20;;;0.20;;
11303;SDS011;5707;49.588;12.148;2023-02-04T07:53:43;0.40;;;0.40;;
11303;SDS011;5707;49.588;12.148;2023-02-04T07:56:08;0.38;;;0.30;;
11303;SDS011;5707;49.588;12.148;2023-02-04T07:58:34;0.22;;;0.22;;
11303;SDS011;5707;49.588;12.148;2023-02-04T08:01:00;0.63;;;0.30;;
11303;SDS011;5707;49.588;12.148;2023-02-04T08:03:25;0.32;;;0.32;;
11303;SDS011;5707;49.588;12.148;2023-02-04T08:05:51;0.20;;;0.20;;
11303;SDS011;5707;49.588;12.148;2023-02-04T08:08:17;0.30;;;0.30;;
11303;SDS011;5707;49.588;12.148;2023-02-04T08:10:43;0.10;;;0.10;;
11303;SDS011;5707;49.588;12.148;2023-02-04T08:13:08;0.30;;;0.30;;
11303;SDS011;5707;49.588;12.148;2023-02-04T08:15:34;0.30;;;0.30;;
11303;SDS011;5707;49.588;12.148;2023-02-04T08:18:00;0.50;;;0.50;;
11303;SDS011;5707;49.588;12.148;2023-02-04T08:20:25;0.43;;;0.43;;
11303;SDS011;5707;49.588;12.148;2023-02-04T08:22:51;0.40;;;0.40;;
11303;SDS011;5707;49.588;12.148;2023-02-04T08:25:17;0.63;;;0.40;;
11303;SDS011;5707;49.588;12.148;2023-02-04T08:27:42;0.50;;;0.32;;
11303;SDS011;5707;49.588;12.148;2023-02-04T08:30:08;0.40;;;0.30;;
11303;SDS011;5707;49.588;12.148;2023-02-04T08:32:34;0.30;;;0.30;;
11303;SDS011;5707;49.588;12.148;2023-02-04T08:35:00;0.32;;;0.30;;
11303;SDS011;5707;49.588;12.148;2023-02-04T08:37:26;0.28;;;0.28;;
11303;SDS011;5707;49.588;12.148;2023-02-04T08:39:51;0.45;;;0.35;;
11303;SDS011;5707;49.588;12.148;2023-02-04T08:42:17;0.63;;;0.40;;
11303;SDS011;5707;49.588;12.148;2023-02-04T08:44:43;0.40;;;0.40;;
11303;SDS011;5707;49.588;12.148;2023-02-04T08:47:08;0.30;;;0.30;;
11303;SDS011;5707;49.588;12.148;2023-02-04T08:49:35;0.50;;;0.50;;
11303;SDS011;5707;49.588;12.148;2023-02-04T08:52:01;0.68;;;0.40;;
11303;SDS011;5707;49.588;12.148;2023-02-04T08:54:28;0.70;;;0.40;;
11303;SDS011;5707;49.588;12.148;2023-02-04T08:56:54;0.30;;;0.30;;
11303;SDS011;5707;49.588;12.148;2023-02-04T08:59:19;0.52;;;0.40;;
11303;SDS011;5707;49.588;12.148;2023-02-04T09:01:48;0.60;;;0.40;;
11303;SDS011;5707;49.588;12.148;2023-02-04T09:04:16;0.40;;;0.30;;
11303;SDS011;5707;49.588;12.148;2023-02-04T09:06:42;0.88;;;0.40;;
11303;SDS011;5707;49.588;12.148;2023-02-04T09:09:08;0.40;;;0.40;;
11303;SDS011;5707;49.588;12.148;2023-02-04T09:11:34;0.57;;;0.32;;
11303;SDS011;5707;49.588;12.148;2023-02-04T09:14:00;0.45;;;0.45;;
11303;SDS011;5707;49.588;12.148;2023-02-04T09:16:25;0.30;;;0.30;;
11303;SDS011;5707;49.588;12.148;2023-02-04T09:18:51;0.43;;;0.40;;
11303;SDS011;5707;49.588;12.148;2023-02-04T09:21:16;0.40;;;0.40;;
11303;SDS011;5707;49.588;12.148;2023-02-04T09:23:42;0.75;;;0.40;;
11303;SDS011;5707;49.588;12.148;2023-02-04T09:26:08;0.40;;;0.40;;
11303;SDS011;5707;49.588;12.148;2023-02-04T09:28:34;0.22;;;0.22;;
11303;SDS011;5707;49.588;12.148;2023-02-04T09:31:00;1.58;;;0.57;;
11303;SDS011;5707;49.588;12.148;2023-02-04T09:33:25;0.43;;;0.43;;
11303;SDS011;5707;49.588;12.148;2023-02-04T09:35:51;0.38;;;0.30;;
11303;SDS011;5707;49.588;12.148;2023-02-04T09:38:16;0.43;;;0.40;;
11303;SDS011;5707;49.588;12.148;2023-02-04T09:40:46;0.40;;;0.40;;
11303;SDS011;5707;49.588;12.148;2023-02-04T09:43:17;0.75;;;0.52;;
11303;SDS011;5707;49.588;12.148;2023-02-04T09:45:46;0.32;;;0.32;;
11303;SDS011;5707;49.588;12.148;2023-02-04T09:48:13;0.30;;;0.30;;
11303;SDS011;5707;49.588;12.148;2023-02-04T09:50:39;0.88;;;0.40;;
11303;SDS011;5707;49.588;12.148;2023-02-04T09:53:05;0.35;;;0.35;;
11303;SDS011;5707;49.588;12.148;2023-02-04T09:55:36;0.65;;;0.50;;
11303;SDS011;5707;49.588;12.148;2023-02-04T09:58:07;0.52;;;0.47;;
11303;SDS011;5707;49.588;12.148;2023-02-04T10:00:43;0.55;;;0.32;;
11303;SDS011;5707;49.588;12.148;2023-02-04T10:03:12;0.28;;;0.28;;
11303;SDS011;5707;49.588;12.148;2023-02-04T10:05:41;0.43;;;0.38;;
11303;SDS011;5707;49.588;12.148;2023-02-04T10:08:08;0.30;;;0.30;;
11303;SDS011;5707;49.588;12.148;2023-02-04T10:10:39;0.50;;;0.30;;
11303;SDS011;5707;49.588;12.148;2023-02-04T10:13:07;0.63;;;0.40;;
11303;SDS011;5707;49.588;12.148;2023-02-04T10:15:44;0.65;;;0.30;;
11303;SDS011;5707;49.588;12.148;2023-02-04T10:18:11;0.30;;;0.30;;
11303;SDS011;5707;49.588;12.148;2023-02-04T10:20:47;0.40;;;0.40;;
11303;SDS011;5707;49.588;12.148;2023-02-04T10:23:13;0.45;;;0.40;;
11303;SDS011;5707;49.588;12.148;2023-02-04T10:25:39;0.70;;;0.40;;
11303;SDS011;5707;49.588;12.148;2023-02-04T10:28:04;0.30;;;0.30;;
11303;SDS011;5707;49.588;12.148;2023-02-04T10:30:31;0.20;;;0.20;;
11303;SDS011;5707;49.588;12.148;2023-02-04T10:33:20;0.20;;;0.20;;
11303;SDS011;5707;49.588;12.148;2023-02-04T10:35:51;0.45;;;0.30;;
11303;SDS011;5707;49.588;12.148;2023-02-04T10:38:18;1.75;;;0.40;;
11303;SDS011;5707;49.588;12.148;2023-02-04T10:40:44;0.40;;;0.40;;
11303;SDS011;5707;49.588;12.148;2023-02-04T10:43:14;0.28;;;0.28;;
11303;SDS011;5707;49.588;12.148;2023-02-04T10:45:46;0.43;;;0.40;;
11303;SDS011;5707;49.588;12.148;2023-02-04T10:48:18;0.30;;;0.28;;
11303;SDS011;5707;49.588;12.148;2023-02-04T10:50:45;0.45;;;0.22;;
11303;SDS011;5707;49.588;12.148;2023-02-04T10:53:13;0.30;;;0.30;;
11303;SDS011;5707;49.588;12.148;2023-02-04T10:55:59;0.60;;;0.32;;
11303;SDS011;5707;49.588;12.148;2023-02-04T10:58:27;0.30;;;0.30;;
11303;SDS011;5707;49.588;12.148;2023-02-04T11:00:53;0.30;;;0.30;;
11303;SDS011;5707;49.588;12.148;2023-02-04T11:03:23;0.73;;;0.50;;
11303;SDS011;5707;49.588;12.148;2023-02-04T11:05:58;0.55;;;0.40;;
11303;SDS011;5707;49.588;12.148;2023-02-04T11:10:55;0.40;;;0.40;;
11303;SDS011;5707;49.588;12.148;2023-02-04T11:13:37;0.55;;;0.20;;
11303;SDS011;5707;49.588;12.148;2023-02-04T11:16:10;0.50;;;0.35;;
11303;SDS011;5707;49.588;12.148;2023-02-04T11:18:58;0.63;;;0.47;;
11303;SDS011;5707;49.588;12.148;2023-02-04T11:24:03;0.45;;;0.30;;
11303;SDS011;5707;49.588;12.148;2023-02-04T11:31:59;0.40;;;0.30;;
11303;SDS011;5707;49.588;12.148;2023-02-04T11:34:31;0.20;;;0.20;;
11303;SDS011;5707;49.588;12.148;2023-02-04T11:37:13;0.43;;;0.22;;
11303;SDS011;5707;49.588;12.148;2023-02-04T11:39:41;1.20;;;0.43;;
11303;SDS011;5707;49.588;12.148;2023-02-04T11:42:14;0.70;;;0.30;;
11303;SDS011;5707;49.588;12.148;2023-02-04T11:45:11;3.20;;;0.57;;
11303;SDS011;5707;49.588;12.148;2023-02-04T11:47:44;0.20;;;0.20;;
11303;SDS011;5707;49.588;12.148;2023-02-04T11:50:21;0.28;;;0.20;;
11303;SDS011;5707;49.588;12.148;2023-02-04T11:52:50;1.20;;;0.22;;
11303;SDS011;5707;49.588;12.148;2023-02-04T11:55:17;0.22;;;0.20;;
11303;SDS011;5707;49.588;12.148;2023-02-04T11:57:43;0.22;;;0.20;;
11303;SDS011;5707;49.588;12.148;2023-02-04T12:00:13;0.28;;;0.28;;
11303;SDS011;5707;49.588;12.148;2023-02-04T12:02:43;1.92;;;0.40;;
11303;SDS011;5707;49.588;12.148;2023-02-04T12:05:14;0.52;;;0.20;;
11303;SDS011;5707;49.588;12.148;2023-02-04T12:07:42;0.30;;;0.10;;
11303;SDS011;5707;49.588;12.148;2023-02-04T12:10:14;0.30;;;0.30;;
11303;SDS011;5707;49.588;12.148;2023-02-04T12:12:43;0.73;;;0.60;;
11303;SDS011;5707;49.588;12.148;2023-02-04T12:18:01;1.00;;;0.40;;
11303;SDS011;5707;49.588;12.148;2023-02-04T12:20:28;0.40;;;0.40;;
11303;SDS011;5707;49.588;12.148;2023-02-04T12:22:53;2.80;;;0.40;;
11303;SDS011;5707;49.588;12.148;2023-02-04T12:25:20;0.30;;;0.30;;
11303;SDS011;5707;49.588;12.148;2023-02-04T12:27:46;0.77;;;0.32;;
11303;SDS011;5707;49.588;12.148;2023-02-04T12:30:11;0.20;;;0.20;;
11303;SDS011;5707;49.588;12.148;2023-02-04T12:32:37;0.52;;;0.52;;
11303;SDS011;5707;49.588;12.148;2023-02-04T12:35:03;0.50;;;0.40;;
11303;SDS011;5707;49.588;12.148;2023-02-04T12:37:29;0.63;;;0.40;;
11303;SDS011;5707;49.588;12.148;2023-02-04T12:39:55;0.30;;;0.30;;
11303;SDS011;5707;49.588;12.148;2023-02-04T12:42:21;0.38;;;0.28;;
11303;SDS011;5707;49.588;12.148;2023-02-04T12:44:46;0.80;;;0.50;;
11303;SDS011;5707;49.588;12.148;2023-02-04T12:47:12;0.20;;;0.20;;
11303;SDS011;5707;49.588;12.148;2023-02-04T12:49:37;0.40;;;0.22;;
11303;SDS011;5707;49.588;12.148;2023-02-04T12:52:04;0.32;;;0.32;;
11303;SDS011;5707;49.588;12.148;2023-02-04T12:54:30;0.35;;;0.20;;
11303;SDS011;5707;49.588;12.148;2023-02-04T12:56:55;0.47;;;0.30;;
11303;SDS011;5707;49.588;12.148;2023-02-04T12:59:22;0.22;;;0.22;;
11303;SDS011;5707;49.588;12.148;2023-02-04T13:01:49;0.43;;;0.30;;
11303;SDS011;5707;49.588;12.148;2023-02-04T13:04:14;0.40;;;0.20;;
11303;SDS011;5707;49.588;12.148;2023-02-04T13:06:40;0.20;;;0.20;;
11303;SDS011;5707;49.588;12.148;2023-02-04T13:09:05;0.40;;;0.30;;
11303;SDS011;5707;49.588;12.148;2023-02-04T13:11:31;0.30;;;0.30;;
11303;SDS011;5707;49.588;12.148;2023-02-04T13:13:57;0.22;;;0.20;;
11303;SDS011;5707;49.588;12.148;2023-02-04T13:16:22;0.38;;;0.38;;
11303;SDS011;5707;49.588;12.148;2023-02-04T13:18:48;0.50;;;0.40;;
11303;SDS011;5707;49.588;12.148;2023-02-04T13:21:15;0.68;;;0.40;;
11303;SDS011;5707;49.588;12.148;2023-02-04T13:23:40;0.45;;;0.28;;
11303;SDS011;5707;49.588;12.148;2023-02-04T13:26:06;0.52;;;0.50;;
11303;SDS011;5707;49.588;12.148;2023-02-04T13:28:33;0.22;;;0.22;;
11303;SDS011;5707;49.588;12.148;2023-02-04T13:30:59;0.20;;;0.20;;
11303;SDS011;5707;49.588;12.148;2023-02-04T13:33:25;0.57;;;0.50;;
11303;SDS011;5707;49.588;12.148;2023-02-04T13:35:50;0.70;;;0.40;;
11303;SDS011;5707;49.588;12.148;2023-02-04T13:38:16;0.30;;;0.30;;
11303;SDS011;5707;49.588;12.148;2023-02-04T13:40:41;1.90;;;0.50;;
11303;SDS011;5707;49.588;12.148;2023-02-04T13:43:07;0.50;;;0.40;;
11303;SDS011;5707;49.588;12.148;2023-02-04T13:45:33;1.00;;;0.52;;
11303;SDS011;5707;49.588;12.148;2023-02-04T13:47:58;0.57;;;0.30;;
11303;SDS011;5707;49.588;12.148;2023-02-04T13:50:24;1.40;;;0.50;;
11303;SDS011;5707;49.588;12.148;2023-02-04T13:52:50;0.30;;;0.30;;
11303;SDS011;5707;49.588;12.148;2023-02-04T13:55:15;0.75;;;0.38;;
11303;SDS011;5707;49.588;12.148;2023-02-04T13:57:41;0.40;;;0.40;;
11303;SDS011;5707;49.588;12.148;2023-02-04T14:00:07;0.93;;;0.40;;
11303;SDS011;5707;49.588;12.148;2023-02-04T14:02:33;0.30;;;0.30;;
11303;SDS011;5707;49.588;12.148;2023-02-04T14:04:59;0.30;;;0.20;;
11303;SDS011;5707;49.588;12.148;2023-02-04T14:07:25;1.33;;;0.68;;
11303;SDS011;5707;49.588;12.148;2023-02-04T14:09:51;0.57;;;0.47;;
11303;SDS011;5707;49.588;12.148;2023-02-04T14:12:16;0.70;;;0.52;;
11303;SDS011;5707;49.588;12.148;2023-02-04T14:14:42;0.57;;;0.45;;
11303;SDS011;5707;49.588;12.148;2023-02-04T14:17:07;0.90;;;0.50;;
11303;SDS011;5707;49.588;12.148;2023-02-04T14:19:33;1.02;;;0.50;;
11303;SDS011;5707;49.588;12.148;2023-02-04T14:21:58;1.92;;;0.40;;
11303;SDS011;5707;49.588;12.148;2023-02-04T14:24:24;0.43;;;0.43;;
11303;SDS011;5707;49.588;12.148;2023-02-04T14:26:50;0.63;;;0.60;;
11303;SDS011;5707;49.588;12.148;2023-02-04T14:29:15;1.35;;;0.70;;
11303;SDS011;5707;49.588;12.148;2023-02-04T14:31:41;0.52;;;0.52;;
11303;SDS011;5707;49.588;12.148;2023-02-04T14:34:06;0.50;;;0.50;;
11303;SDS011;5707;49.588;12.148;2023-02-04T14:36:32;0.38;;;0.30;;
11303;SDS011;5707;49.588;12.148;2023-02-04T14:38:57;1.48;;;0.30;;
11303;SDS011;5707;49.588;12.148;2023-02-04T14:41:23;0.40;;;0.35;;
11303;SDS011;5707;49.588;12.148;2023-02-04T14:43:50;0.50;;;0.28;;
11303;SDS011;5707;49.588;12.148;2023-02-04T14:46:17;0.40;;;0.35;;
11303;SDS011;5707;49.588;12.148;2023-02-04T14:48:43;0.40;;;0.40;;
11303;SDS011;5707;49.588;12.148;2023-02-04T14:51:09;1.63;;;0.70;;
11303;SDS011;5707;49.588;12.148;2023-02-04T14:53:35;0.43;;;0.30;;
11303;SDS011;5707;49.588;12.148;2023-02-04T14:56:01;0.30;;;0.30;;
11303;SDS011;5707;49.588;12.148;2023-02-04T14:58:27;0.40;;;0.40;;